sensor_id;sensor_type;location;lat;lon;timestamp;pressure;altitude;pressure_sealevel;temperature;humidity
55460;BME280;41326;45.302;-122.946;2024-01-15T20:50:51;102186.97;;;18.75;41.93
55460;BME280;41326;45.302;-122.946;2024-01-15T20:53:21;102191.80;;;18.73;39.53
55460;BME280;41326;45.302;-122.946;2024-01-15T20:55:51;102188.53;;;18.80;39.66
55460;BME280;41326;45.302;-122.946;2024-01-15T20:58:22;102196.31;;;18.94;39.80
55460;BME280;41326;45.302;-122.946;2024-01-15T21:00:51;102183.24;;;18.95;39.87
55460;BME280;41326;45.302;-122.946;2024-01-15T21:03:21;102176.52;;;18.85;40.23
55460;BME280;41326;45.302;-122.946;2024-01-15T21:05:51;102167.35;;;18.80;40.38
55460;BME280;41326;45.302;-122.946;2024-01-15T21:08:21;102161.55;;;18.79;40.44
55460;BME280;41326;45.302;-122.946;2024-01-15T21:10:51;102155.64;;;18.89;40.07
55460;BME280;41326;45.302;-122.946;2024-01-15T21:13:21;102148.17;;;19.13;39.59
55460;BME280;41326;45.302;-122.946;2024-01-15T21:15:51;102135.60;;;19.31;39.18
55460;BME280;41326;45.302;-122.946;2024-01-15T21:18:22;102131.60;;;19.19;39.24
55460;BME280;41326;45.302;-122.946;2024-01-15T21:20:52;102126.49;;;19.07;39.57
55460;BME280;41326;45.302;-122.946;2024-01-15T21:23:22;102131.00;;;18.97;39.83
55460;BME280;41326;45.302;-122.946;2024-01-15T21:25:52;102125.73;;;18.85;40.11
55460;BME280;41326;45.302;-122.946;2024-01-15T21:28:22;102125.83;;;18.84;39.96
55460;BME280;41326;45.302;-122.946;2024-01-15T21:30:52;102115.06;;;18.99;39.68
55460;BME280;41326;45.302;-122.946;2024-01-15T21:33:22;102116.12;;;19.19;39.28
55460;BME280;41326;45.302;-122.946;2024-01-15T21:35:52;102116.68;;;19.17;38.21
55460;BME280;41326;45.302;-122.946;2024-01-15T21:38:22;102109.04;;;19.01;38.13
55460;BME280;41326;45.302;-122.946;2024-01-15T21:40:52;102112.08;;;18.87;38.71
55460;BME280;41326;45.302;-122.946;2024-01-15T21:43:23;102116.59;;;18.77;39.19
55460;BME280;41326;45.302;-122.946;2024-01-15T21:45:53;102110.92;;;18.81;39.43
55460;BME280;41326;45.302;-122.946;2024-01-15T21:48:23;102112.95;;;18.88;39.54
55460;BME280;41326;45.302;-122.946;2024-01-15T21:50:54;102114.59;;;19.02;39.26
55460;BME280;41326;45.302;-122.946;2024-01-15T21:53:23;102113.69;;;18.94;38.99
55460;BME280;41326;45.302;-122.946;2024-01-15T21:55:53;102114.82;;;18.85;39.54
55460;BME280;41326;45.302;-122.946;2024-01-15T21:58:23;102106.61;;;18.81;39.63
55460;BME280;41326;45.302;-122.946;2024-01-15T22:00:53;102105.25;;;18.74;39.97
55460;BME280;41326;45.302;-122.946;2024-01-15T22:03:23;102095.51;;;18.67;40.37
55460;BME280;41326;45.302;-122.946;2024-01-15T22:05:54;102084.48;;;18.64;40.64
55460;BME280;41326;45.302;-122.946;2024-01-15T22:08:24;102090.84;;;18.74;40.46
55460;BME280;41326;45.302;-122.946;2024-01-15T22:10:54;102080.67;;;18.93;40.15
55460;BME280;41326;45.302;-122.946;2024-01-15T22:13:24;102076.34;;;19.06;39.93
55460;BME280;41326;45.302;-122.946;2024-01-15T22:15:54;102088.73;;;18.98;40.06
55460;BME280;41326;45.302;-122.946;2024-01-15T22:18:24;102081.19;;;18.90;40.25
55460;BME280;41326;45.302;-122.946;2024-01-15T22:20:54;102078.45;;;18.85;40.43
55460;BME280;41326;45.302;-122.946;2024-01-15T22:23:24;102073.59;;;18.71;40.84
55460;BME280;41326;45.302;-122.946;2024-01-15T22:25:54;102068.89;;;18.66;40.92
55460;BME280;41326;45.302;-122.946;2024-01-15T22:28:24;102054.81;;;18.77;40.82
55460;BME280;41326;45.302;-122.946;2024-01-15T22:30:55;102057.49;;;18.85;40.72
55460;BME280;41326;45.302;-122.946;2024-01-15T22:33:25;102055.03;;;18.93;40.37
55460;BME280;41326;45.302;-122.946;2024-01-15T22:35:55;102051.28;;;18.79;40.62
55460;BME280;41326;45.302;-122.946;2024-01-15T22:38:25;102053.89;;;18.75;40.65
55460;BME280;41326;45.302;-122.946;2024-01-15T22:40:55;102046.85;;;18.61;40.93
55460;BME280;41326;45.302;-122.946;2024-01-15T22:43:25;102039.21;;;18.48;41.28
55460;BME280;41326;45.302;-122.946;2024-01-15T22:45:55;102039.84;;;18.35;41.56
55460;BME280;41326;45.302;-122.946;2024-01-15T22:48:25;102049.01;;;18.32;41.53
55460;BME280;41326;45.302;-122.946;2024-01-15T22:50:56;102047.51;;;18.48;41.17
55460;BME280;41326;45.302;-122.946;2024-01-15T22:53:25;102046.53;;;18.68;40.67
55460;BME280;41326;45.302;-122.946;2024-01-15T22:55:56;102053.13;;;18.73;40.49
55460;BME280;41326;45.302;-122.946;2024-01-15T22:58:26;102057.39;;;18.64;40.52
55460;BME280;41326;45.302;-122.946;2024-01-15T23:00:56;102056.53;;;18.54;40.70
55460;BME280;41326;45.302;-122.946;2024-01-15T23:03:26;102063.28;;;18.46;40.95
55460;BME280;41326;45.302;-122.946;2024-01-15T23:05:56;102069.90;;;18.37;41.13
55460;BME280;41326;45.302;-122.946;2024-01-15T23:08:26;102075.61;;;18.41;41.07
55460;BME280;41326;45.302;-122.946;2024-01-15T23:10:56;102079.52;;;18.56;40.78
55460;BME280;41326;45.302;-122.946;2024-01-15T23:13:26;102077.26;;;18.76;40.28
55460;BME280;41326;45.302;-122.946;2024-01-15T23:15:56;102068.20;;;18.84;40.02
55460;BME280;41326;45.302;-122.946;2024-01-15T23:18:27;102049.03;;;18.82;39.96
55460;BME280;41326;45.302;-122.946;2024-01-15T23:20:57;102038.07;;;18.75;40.14
55460;BME280;41326;45.302;-122.946;2024-01-15T23:23:27;102039.11;;;18.68;40.34
55460;BME280;41326;45.302;-122.946;2024-01-15T23:25:57;102041.00;;;18.68;40.24
55460;BME280;41326;45.302;-122.946;2024-01-15T23:28:27;102038.19;;;18.79;40.12
55460;BME280;41326;45.302;-122.946;2024-01-15T23:30:57;102038.67;;;18.94;39.90
55460;BME280;41326;45.302;-122.946;2024-01-15T23:33:27;102039.03;;;19.00;39.74
55460;BME280;41326;45.302;-122.946;2024-01-15T23:35:57;102028.72;;;18.87;39.97
55460;BME280;41326;45.302;-122.946;2024-01-15T23:38:27;102024.23;;;18.79;40.19
55460;BME280;41326;45.302;-122.946;2024-01-15T23:40:57;102022.83;;;18.72;40.40
55460;BME280;41326;45.302;-122.946;2024-01-15T23:43:28;102015.30;;;18.65;40.61
55460;BME280;41326;45.302;-122.946;2024-01-15T23:45:58;102024.86;;;18.56;40.71
55460;BME280;41326;45.302;-122.946;2024-01-15T23:48:28;102020.70;;;18.67;40.64
55460;BME280;41326;45.302;-122.946;2024-01-15T23:50:58;102022.36;;;18.82;40.33
55460;BME280;41326;45.302;-122.946;2024-01-15T23:53:28;102024.97;;;18.86;40.16
55460;BME280;41326;45.302;-122.946;2024-01-15T23:55:58;102040.30;;;18.76;40.32
55460;BME280;41326;45.302;-122.946;2024-01-15T23:58:28;102038.09;;;18.67;40.52
